Time;durP1;ratioP1;P1;durP2;ratioP2;P2;SDS_P1;SDS_P2;PMS_P1;PMS_P2;Temp;Humidity;BMP_temperature;BMP_pressure;BME280_temperature;BME280_humidity;BME280_pressure;Samples;Min_cycle;Max_cycle;Signal;HPM_P1;HPM_P2
2021/12/23 00:00:58;;;;;;;14.67;10.30;;;1.60;99.90;;;;;;4986385;28;20252;-78
2021/12/23 00:03:26;;;;;;;13.60;10.70;;;1.60;99.90;;;;;;4957254;28;20268;-79
2021/12/23 00:05:55;;;;;;;14.43;11.20;;;1.60;99.90;;;;;;4965543;28;20202;-79
2021/12/23 00:08:21;;;;;;;15.53;10.93;;;1.60;99.90;;;;;;4960707;28;20330;-78
2021/12/23 00:10:52;;;;;;;16.07;11.60;;;1.60;99.90;;;;;;4961982;28;20184;-79
2021/12/23 00:13:18;;;;;;;17.23;11.73;;;1.60;99.90;;;;;;4962311;28;20208;-77
2021/12/23 00:23:53;;;;;;;15.37;11.83;;;1.60;99.90;;;;;;4965637;28;20235;-78
2021/12/23 00:26:19;;;;;;;14.87;10.47;;;1.60;99.90;;;;;;4962428;28;20228;-79
2021/12/23 00:28:45;;;;;;;13.00;9.73;;;1.60;99.90;;;;;;4977524;28;20216;-78
2021/12/23 00:31:13;;;;;;;12.50;9.30;;;1.60;99.90;;;;;;4960017;28;20230;-79
2021/12/23 00:33:40;;;;;;;15.30;10.37;;;1.60;99.90;;;;;;4972110;28;20193;-79
2021/12/23 00:36:12;;;;;;;13.53;10.40;;;1.60;99.90;;;;;;4958583;28;20208;-78
2021/12/23 00:38:44;;;;;;;14.80;11.47;;;1.60;99.90;;;;;;4962494;28;20232;-78
2021/12/23 00:41:10;;;;;;;13.57;10.10;;;1.60;99.90;;;;;;4968697;28;20185;-79
2021/12/23 00:43:37;;;;;;;11.90;9.37;;;1.60;99.90;;;;;;4963076;28;20187;-78
2021/12/23 00:46:06;;;;;;;13.83;10.57;;;1.60;99.90;;;;;;4971559;28;20207;-79
2021/12/23 00:48:35;;;;;;;15.13;10.70;;;1.60;99.90;;;;;;4957627;28;20261;-76
2021/12/23 00:51:03;;;;;;;14.47;11.20;;;1.60;99.90;;;;;;4957651;28;20193;-78
2021/12/23 00:53:36;;;;;;;15.63;11.50;;;1.70;99.90;;;;;;4963442;28;20216;-79
2021/12/23 00:56:01;;;;;;;14.80;10.53;;;1.70;99.90;;;;;;4973190;28;20207;-78
2021/12/23 00:58:29;;;;;;;14.37;10.60;;;1.70;99.90;;;;;;4963249;28;20485;-78
2021/12/23 01:00:55;;;;;;;13.40;10.17;;;1.70;99.90;;;;;;4963867;28;20184;-78
2021/12/23 01:03:21;;;;;;;13.77;9.90;;;1.70;99.90;;;;;;4973212;28;20193;-79
2021/12/23 01:05:47;;;;;;;14.10;9.80;;;1.70;99.90;;;;;;4958717;28;20196;-78
2021/12/23 01:08:13;;;;;;;14.37;10.47;;;1.70;99.90;;;;;;4962685;28;20173;-79
2021/12/23 01:10:39;;;;;;;14.63;10.60;;;1.70;99.90;;;;;;4958298;28;20211;-72
2021/12/23 01:13:06;;;;;;;16.27;11.77;;;1.70;99.90;;;;;;4964142;28;20211;-79
2021/12/23 01:18:19;;;;;;;14.13;9.97;;;1.70;99.90;;;;;;4966620;28;20227;-78
2021/12/23 01:21:03;;;;;;;15.53;10.77;;;1.70;99.90;;;;;;4969581;28;20208;-76
2021/12/23 01:23:39;;;;;;;16.10;11.27;;;1.70;99.90;;;;;;4963230;28;20314;-78
2021/12/23 01:26:08;;;;;;;15.47;10.13;;;1.60;99.90;;;;;;4962633;28;20199;-78
2021/12/23 01:28:38;;;;;;;14.43;10.03;;;1.60;99.90;;;;;;4964411;28;20211;-78
2021/12/23 01:31:05;;;;;;;13.80;10.17;;;1.60;99.90;;;;;;4962869;28;20196;-78
2021/12/23 01:33:30;;;;;;;14.03;10.90;;;1.60;99.90;;;;;;4966217;28;20208;-78
2021/12/23 01:35:59;;;;;;;14.60;10.03;;;1.60;99.90;;;;;;4964864;28;20218;-81
2021/12/23 01:38:30;;;;;;;15.77;11.40;;;1.60;99.90;;;;;;4959089;28;20195;-80
2021/12/23 01:40:55;;;;;;;15.13;10.47;;;1.60;99.90;;;;;;4959936;28;20272;-78
2021/12/23 01:43:21;;;;;;;15.97;11.23;;;1.60;99.90;;;;;;4958318;28;20224;-77
2021/12/23 01:45:49;;;;;;;15.33;11.07;;;1.60;99.90;;;;;;4964476;28;20185;-77
2021/12/23 01:48:18;;;;;;;13.90;10.63;;;1.50;99.90;;;;;;4966708;28;20192;-78
2021/12/23 01:50:44;;;;;;;14.37;10.57;;;1.50;99.90;;;;;;4962168;28;20173;-77
2021/12/23 01:53:10;;;;;;;15.17;10.93;;;1.50;99.90;;;;;;4964272;28;20205;-77
2021/12/23 01:55:37;;;;;;;14.73;10.60;;;1.50;99.90;;;;;;4972332;28;20922;-80
2021/12/23 01:58:05;;;;;;;13.03;10.00;;;1.50;99.90;;;;;;4962347;28;20180;-82
2021/12/23 02:00:34;;;;;;;13.73;10.63;;;1.50;99.90;;;;;;4962064;28;20284;-77
2021/12/23 02:03:00;;;;;;;14.83;10.63;;;1.50;99.90;;;;;;4963066;28;20181;-79
2021/12/23 02:05:26;;;;;;;14.03;10.77;;;1.50;99.90;;;;;;4960158;28;20177;-78
2021/12/23 02:07:52;;;;;;;12.33;9.67;;;1.50;99.90;;;;;;4978725;28;20291;-78
2021/12/23 02:10:22;;;;;;;15.87;11.13;;;1.50;99.90;;;;;;4979744;28;20244;-80
2021/12/23 02:12:52;;;;;;;16.90;11.60;;;1.50;99.90;;;;;;4963268;28;20189;-76
2021/12/23 02:15:23;;;;;;;13.53;10.73;;;1.50;99.90;;;;;;4966052;28;20207;-75
2021/12/23 02:17:49;;;;;;;15.67;11.33;;;1.50;99.90;;;;;;4957232;28;20185;-80
2021/12/23 02:20:22;;;;;;;14.50;10.90;;;1.50;99.90;;;;;;4959539;28;20205;-78
2021/12/23 02:22:49;;;;;;;16.27;11.57;;;1.50;99.90;;;;;;4983143;28;20172;-78
2021/12/23 02:25:18;;;;;;;15.60;11.00;;;1.50;99.90;;;;;;4981708;28;20192;-77
2021/12/23 02:27:47;;;;;;;15.80;10.57;;;1.50;99.90;;;;;;4963452;28;20197;-77
2021/12/23 02:30:25;;;;;;;15.83;10.40;;;1.50;99.90;;;;;;4969173;28;20309;-79
2021/12/23 02:32:52;;;;;;;14.57;10.17;;;1.50;99.90;;;;;;4975087;28;20198;-77
2021/12/23 02:35:26;;;;;;;15.60;10.57;;;1.50;99.90;;;;;;4970930;28;20213;-77
2021/12/23 02:37:54;;;;;;;15.73;11.43;;;1.50;99.90;;;;;;4979065;28;20184;-78
2021/12/23 02:40:33;;;;;;;15.73;11.63;;;1.50;99.90;;;;;;4969858;28;20199;-79
2021/12/23 02:43:13;;;;;;;15.60;11.30;;;1.50;99.90;;;;;;4973643;28;20179;-79
2021/12/23 02:45:42;;;;;;;15.10;10.97;;;1.50;99.90;;;;;;4969997;28;20238;-77
2021/12/23 02:48:17;;;;;;;15.70;11.63;;;1.60;99.90;;;;;;4967006;28;20356;-79
2021/12/23 02:50:48;;;;;;;17.90;12.90;;;1.60;99.90;;;;;;4968098;28;20183;-76
2021/12/23 02:53:15;;;;;;;15.60;11.60;;;1.60;99.90;;;;;;4962876;28;20415;-74
2021/12/23 02:55:41;;;;;;;13.97;9.90;;;1.60;99.90;;;;;;4958029;28;20208;-77
2021/12/23 02:58:07;;;;;;;12.97;9.60;;;1.60;99.90;;;;;;4992902;28;20189;-78
2021/12/23 03:00:36;;;;;;;13.90;11.23;;;1.60;99.90;;;;;;4959595;28;20190;-79
2021/12/23 03:03:01;;;;;;;12.90;9.90;;;1.60;99.90;;;;;;4970408;28;20184;-77
2021/12/23 03:05:29;;;;;;;14.13;9.30;;;1.70;99.90;;;;;;4971603;28;20207;-75
2021/12/23 03:07:57;;;;;;;15.50;11.50;;;1.70;99.90;;;;;;4967862;28;20206;-78
2021/12/23 03:10:23;;;;;;;15.27;10.73;;;1.70;99.90;;;;;;4959572;28;20189;-78
2021/12/23 03:12:50;;;;;;;14.67;10.43;;;1.70;99.90;;;;;;4965707;28;20199;-78
2021/12/23 03:15:15;;;;;;;13.80;10.03;;;1.80;99.90;;;;;;4966937;28;20224;-78
2021/12/23 03:17:41;;;;;;;15.03;10.37;;;1.80;99.90;;;;;;4966457;28;20450;-79
2021/12/23 03:20:10;;;;;;;13.17;9.70;;;1.80;99.90;;;;;;4974552;28;20276;-78
2021/12/23 03:22:38;;;;;;;12.47;9.53;;;1.80;99.90;;;;;;4959262;28;20208;-76
2021/12/23 03:25:04;;;;;;;13.57;9.93;;;1.80;99.90;;;;;;4963069;28;20192;-78
2021/12/23 03:27:32;;;;;;;14.03;10.73;;;1.80;99.90;;;;;;4982197;28;20211;-76
2021/12/23 03:29:58;;;;;;;14.23;10.57;;;1.90;99.90;;;;;;4965748;28;20228;-78
2021/12/23 03:32:26;;;;;;;14.83;11.23;;;1.90;99.90;;;;;;4981763;28;20192;-77
2021/12/23 03:34:51;;;;;;;12.83;9.73;;;1.90;99.90;;;;;;4961628;28;20288;-77
2021/12/23 03:37:20;;;;;;;18.47;13.30;;;1.90;99.90;;;;;;4959972;28;20302;-76
2021/12/23 03:39:51;;;;;;;14.77;10.40;;;1.90;99.90;;;;;;4980972;28;20429;-77
2021/12/23 03:42:17;;;;;;;14.47;10.70;;;1.90;99.90;;;;;;4961849;28;20232;-78
2021/12/23 03:44:48;;;;;;;14.70;10.70;;;1.90;99.90;;;;;;4967457;28;20184;-77
2021/12/23 03:47:13;;;;;;;17.90;12.57;;;1.90;99.90;;;;;;4980407;28;20184;-78
2021/12/23 03:49:42;;;;;;;16.53;10.63;;;1.90;99.90;;;;;;5003591;28;20461;-77
2021/12/23 03:52:07;;;;;;;15.03;10.87;;;1.90;99.90;;;;;;4967444;28;20204;-75
2021/12/23 03:54:35;;;;;;;14.57;10.60;;;1.90;99.90;;;;;;4981561;28;20242;-77
2021/12/23 03:57:01;;;;;;;17.30;11.63;;;1.90;99.90;;;;;;4972562;28;20321;-74
2021/12/23 03:59:27;;;;;;;16.17;11.57;;;1.90;99.90;;;;;;4963748;28;20185;-73
2021/12/23 04:01:53;;;;;;;15.93;11.00;;;1.90;99.90;;;;;;4971698;28;20195;-77
2021/12/23 04:04:18;;;;;;;14.43;10.83;;;1.90;99.90;;;;;;4961911;28;20198;-78
2021/12/23 04:06:46;;;;;;;13.23;9.63;;;1.90;99.90;;;;;;4960324;28;20181;-78
2021/12/23 04:09:14;;;;;;;13.53;9.93;;;1.90;99.90;;;;;;4959351;28;20281;-73
2021/12/23 04:11:42;;;;;;;12.60;9.47;;;1.90;99.90;;;;;;4958146;28;20246;-78
2021/12/23 04:14:08;;;;;;;12.20;9.20;;;1.90;99.90;;;;;;4958406;28;20244;-78
2021/12/23 04:16:35;;;;;;;13.43;9.93;;;1.90;99.90;;;;;;4963674;28;20223;-77
2021/12/23 04:19:06;;;;;;;13.30;9.80;;;1.90;99.90;;;;;;4962976;28;20321;-74
2021/12/23 04:21:35;;;;;;;12.50;9.53;;;1.90;99.90;;;;;;4965718;28;20204;-77
2021/12/23 04:24:03;;;;;;;12.90;9.87;;;1.90;99.90;;;;;;4966784;28;20285;-75
2021/12/23 04:26:31;;;;;;;13.77;10.13;;;1.90;99.90;;;;;;4958588;28;20421;-77
2021/12/23 04:28:59;;;;;;;13.00;9.60;;;1.90;99.90;;;;;;4963095;28;20187;-78
2021/12/23 04:31:25;;;;;;;12.07;9.40;;;1.90;99.90;;;;;;4966872;28;20176;-75
2021/12/23 04:33:55;;;;;;;14.63;10.30;;;1.90;99.90;;;;;;4964215;28;20268;-77
2021/12/23 04:36:24;;;;;;;11.90;9.20;;;2.00;99.90;;;;;;4967178;28;20207;-74
2021/12/23 04:38:49;;;;;;;15.83;10.97;;;1.90;99.90;;;;;;4958869;28;20176;-76
2021/12/23 04:41:20;;;;;;;13.60;10.53;;;1.90;99.90;;;;;;4975539;28;20199;-79
2021/12/23 04:43:45;;;;;;;13.50;9.37;;;1.90;99.90;;;;;;4966382;28;20208;-79
2021/12/23 04:46:13;;;;;;;13.53;10.23;;;1.90;99.90;;;;;;4959078;28;20227;-76
2021/12/23 04:48:39;;;;;;;14.53;10.87;;;1.90;99.90;;;;;;4963193;28;20215;-78
2021/12/23 04:51:05;;;;;;;14.93;11.17;;;2.00;99.90;;;;;;4975915;28;20478;-76
2021/12/23 04:53:31;;;;;;;19.93;13.23;;;1.90;99.90;;;;;;4964439;28;20188;-78
2021/12/23 04:55:57;;;;;;;16.00;11.27;;;1.90;99.90;;;;;;4965367;28;20207;-78
2021/12/23 04:58:23;;;;;;;15.07;11.40;;;1.90;99.90;;;;;;4967847;28;20204;-78
2021/12/23 05:00:50;;;;;;;15.10;10.83;;;1.90;99.90;;;;;;4971741;28;20187;-79
2021/12/23 05:03:17;;;;;;;14.90;10.20;;;1.90;99.90;;;;;;4976296;28;20212;-78
2021/12/23 05:05:45;;;;;;;11.90;9.37;;;1.90;99.90;;;;;;4954103;28;20189;-78
2021/12/23 05:08:12;;;;;;;13.30;9.70;;;1.90;99.90;;;;;;4968167;28;20216;-78
2021/12/23 05:10:37;;;;;;;15.40;10.73;;;1.90;99.90;;;;;;4967654;28;20187;-78
2021/12/23 05:13:04;;;;;;;14.37;10.20;;;1.90;99.90;;;;;;4957835;28;20206;-76
2021/12/23 05:15:32;;;;;;;14.17;10.53;;;1.90;99.90;;;;;;4953123;28;20222;-79
2021/12/23 05:17:58;;;;;;;14.13;10.40;;;1.90;99.90;;;;;;4984908;28;20200;-77
2021/12/23 05:20:24;;;;;;;13.13;9.73;;;1.90;99.90;;;;;;4986254;28;20207;-78
2021/12/23 05:22:50;;;;;;;13.77;9.83;;;1.90;99.90;;;;;;4978638;28;20271;-79
2021/12/23 05:25:17;;;;;;;13.87;10.17;;;1.80;99.90;;;;;;4953747;28;20289;-77
2021/12/23 05:27:43;;;;;;;13.00;9.63;;;1.80;99.90;;;;;;4972129;28;20242;-78
2021/12/23 05:30:13;;;;;;;11.37;8.87;;;1.80;99.90;;;;;;4958672;28;20204;-78
2021/12/23 05:32:42;;;;;;;14.03;10.00;;;1.90;99.90;;;;;;4962923;28;20218;-77
2021/12/23 05:35:12;;;;;;;13.07;9.30;;;1.80;99.90;;;;;;4959585;28;20227;-78
2021/12/23 05:37:43;;;;;;;13.20;9.57;;;1.80;99.90;;;;;;4964382;28;20431;-75
2021/12/23 05:40:11;;;;;;;15.63;10.50;;;1.80;99.90;;;;;;4967279;28;20268;-77
2021/12/23 05:42:37;;;;;;;14.33;10.17;;;1.80;99.90;;;;;;4963284;28;20448;-78
2021/12/23 05:45:06;;;;;;;13.40;10.07;;;1.80;99.90;;;;;;4966066;28;20202;-79
2021/12/23 05:47:32;;;;;;;14.80;9.90;;;1.80;99.90;;;;;;4975380;28;20196;-78
2021/12/23 05:49:57;;;;;;;14.20;10.33;;;1.70;99.90;;;;;;4956112;28;20198;-76
2021/12/23 05:52:23;;;;;;;14.37;10.23;;;1.70;99.90;;;;;;4964813;28;20200;-77
2021/12/23 05:54:51;;;;;;;14.73;10.63;;;1.70;99.90;;;;;;4960622;28;20280;-76
2021/12/23 05:57:21;;;;;;;13.63;10.00;;;1.70;99.90;;;;;;4969996;28;20212;-77
2021/12/23 05:59:50;;;;;;;12.97;9.17;;;1.70;99.90;;;;;;4969293;28;20184;-76
2021/12/23 06:02:20;;;;;;;12.33;8.83;;;1.70;99.90;;;;;;4967876;28;20191;-78
2021/12/23 06:04:48;;;;;;;13.77;10.20;;;1.70;99.90;;;;;;4973862;28;20188;-78
2021/12/23 06:07:14;;;;;;;13.20;9.97;;;1.70;99.90;;;;;;4989217;28;20790;-78
2021/12/23 06:09:39;;;;;;;13.47;9.67;;;1.70;99.90;;;;;;4959679;28;20192;-78
2021/12/23 06:12:05;;;;;;;13.87;10.03;;;1.70;99.90;;;;;;4984814;28;20208;-78
2021/12/23 06:14:33;;;;;;;12.83;9.77;;;1.70;99.90;;;;;;4969291;28;20216;-77
2021/12/23 06:17:01;;;;;;;12.57;9.43;;;1.70;99.90;;;;;;4970066;28;20172;-73
2021/12/23 06:19:26;;;;;;;12.07;9.47;;;1.70;99.90;;;;;;4958324;28;20192;-77
2021/12/23 06:21:54;;;;;;;11.43;8.57;;;1.70;99.90;;;;;;4962402;28;20330;-78
2021/12/23 06:24:20;;;;;;;14.57;9.80;;;1.70;99.90;;;;;;4962453;28;20184;-78
2021/12/23 06:26:46;;;;;;;13.87;10.37;;;1.70;99.90;;;;;;4963734;28;20191;-77
2021/12/23 06:29:11;;;;;;;13.57;9.90;;;1.80;99.90;;;;;;4967265;28;20196;-78
2021/12/23 06:31:39;;;;;;;12.73;9.77;;;1.80;99.90;;;;;;4973578;28;20239;-77
2021/12/23 06:34:07;;;;;;;13.53;9.60;;;1.80;99.90;;;;;;4960289;28;20412;-75
2021/12/23 06:36:36;;;;;;;14.07;10.10;;;1.80;99.90;;;;;;4967294;28;20198;-78
2021/12/23 06:39:07;;;;;;;13.70;9.37;;;1.80;99.90;;;;;;4981511;28;20196;-74
2021/12/23 06:41:33;;;;;;;14.10;9.83;;;1.80;99.90;;;;;;4982400;28;20230;-76
2021/12/23 06:44:01;;;;;;;13.80;9.80;;;1.80;99.90;;;;;;4960730;28;20180;-78
2021/12/23 06:46:26;;;;;;;14.73;10.27;;;1.80;99.90;;;;;;4968071;28;20180;-77
2021/12/23 06:48:52;;;;;;;15.83;10.50;;;1.90;99.90;;;;;;5028596;28;20268;-77
2021/12/23 06:51:18;;;;;;;12.47;9.50;;;1.80;99.90;;;;;;4966127;28;20450;-75
2021/12/23 06:53:45;;;;;;;13.50;9.70;;;1.90;99.90;;;;;;4957365;28;20306;-70
2021/12/23 06:56:17;;;;;;;14.27;10.73;;;1.90;99.90;;;;;;4964686;28;20212;-73
2021/12/23 06:58:50;;;;;;;14.87;10.33;;;1.90;99.90;;;;;;4971168;28;20390;-71
2021/12/23 07:01:18;;;;;;;14.43;10.53;;;1.90;99.90;;;;;;4981563;28;20258;-73
2021/12/23 07:06:23;;;;;;;14.30;10.37;;;1.90;99.90;;;;;;4961302;28;20177;-73
2021/12/23 07:08:53;;;;;;;14.83;10.30;;;1.90;99.90;;;;;;4962431;28;20188;-72
2021/12/23 07:11:19;;;;;;;14.37;10.07;;;2.00;99.90;;;;;;5013423;28;20204;-73
2021/12/23 07:13:45;;;;;;;14.13;9.60;;;1.90;99.90;;;;;;4964026;28;20265;-68
2021/12/23 07:16:11;;;;;;;12.87;9.53;;;1.90;99.90;;;;;;4959719;28;20204;-68
2021/12/23 07:18:37;;;;;;;13.57;9.57;;;2.00;99.90;;;;;;4996734;28;20203;-68
2021/12/23 07:21:07;;;;;;;13.30;9.30;;;2.00;99.90;;;;;;4968043;28;20188;-68
2021/12/23 07:23:32;;;;;;;11.83;8.87;;;2.00;99.90;;;;;;4965155;28;20185;-68
2021/12/23 07:25:58;;;;;;;12.40;9.13;;;2.00;99.90;;;;;;4967071;28;20180;-67
2021/12/23 07:28:24;;;;;;;14.23;9.80;;;2.10;99.90;;;;;;4956816;28;20207;-67
2021/12/23 07:30:54;;;;;;;12.30;8.90;;;2.10;99.90;;;;;;4960466;28;20216;-67
2021/12/23 07:33:22;;;;;;;13.23;9.40;;;2.10;99.90;;;;;;4970308;28;20200;-64
2021/12/23 07:35:48;;;;;;;12.37;9.13;;;2.10;99.90;;;;;;4967888;28;20272;-68
2021/12/23 07:38:17;;;;;;;12.50;9.80;;;2.10;99.90;;;;;;4960505;28;20275;-65
2021/12/23 07:40:43;;;;;;;12.50;9.37;;;2.20;99.90;;;;;;4963017;28;20263;-64
2021/12/23 07:43:56;;;;;;;13.37;9.70;;;2.20;99.90;;;;;;4977109;28;20446;-67
2021/12/23 07:46:03;;;;;;;13.47;9.97;;;2.20;99.90;;;;;;4967403;28;20188;-66
2021/12/23 07:48:30;;;;;;;13.67;9.13;;;2.20;99.90;;;;;;4972817;28;20260;-67
2021/12/23 07:50:59;;;;;;;13.37;9.83;;;2.30;99.90;;;;;;4971167;28;20230;-65
2021/12/23 07:53:25;;;;;;;13.50;9.77;;;2.30;99.90;;;;;;4955221;28;20212;-67
2021/12/23 07:55:51;;;;;;;12.43;9.03;;;2.30;99.90;;;;;;4958477;28;20259;-67
2021/12/23 07:58:19;;;;;;;14.50;9.53;;;2.30;99.90;;;;;;4961896;28;20200;-68
2021/12/23 08:00:47;;;;;;;12.23;8.67;;;2.30;99.90;;;;;;4963360;28;20181;-62
2021/12/23 08:03:13;;;;;;;12.97;9.33;;;2.30;99.90;;;;;;4963210;28;20208;-68
2021/12/23 08:05:44;;;;;;;13.57;9.73;;;2.30;99.90;;;;;;4973280;28;20215;-68
2021/12/23 08:08:09;;;;;;;13.13;9.27;;;2.30;99.90;;;;;;4963117;28;20314;-67
2021/12/23 08:10:38;;;;;;;14.77;10.87;;;2.30;99.90;;;;;;4963657;28;20180;-66
2021/12/23 08:13:07;;;;;;;13.03;9.60;;;2.40;99.90;;;;;;4963180;28;20188;-68
2021/12/23 08:15:33;;;;;;;13.67;9.63;;;2.40;99.90;;;;;;4962258;28;20212;-61
2021/12/23 08:17:59;;;;;;;12.43;8.97;;;2.40;99.90;;;;;;4971661;28;20172;-65
2021/12/23 08:20:25;;;;;;;12.40;9.00;;;2.40;99.90;;;;;;4960484;28;20200;-67
2021/12/23 08:22:53;;;;;;;14.40;9.57;;;2.50;99.90;;;;;;4964531;28;20200;-66
2021/12/23 08:25:18;;;;;;;12.17;9.13;;;2.50;99.90;;;;;;4960956;28;20199;-67
2021/12/23 08:27:44;;;;;;;12.43;8.93;;;2.50;99.90;;;;;;4966735;28;20570;-67
2021/12/23 08:30:17;;;;;;;12.60;8.97;;;2.60;99.90;;;;;;4962916;28;20204;-67
2021/12/23 08:32:43;;;;;;;12.13;8.83;;;2.60;99.90;;;;;;5004536;28;20284;-67
2021/12/23 08:35:11;;;;;;;15.47;10.13;;;2.60;99.90;;;;;;4957338;28;20246;-68
2021/12/23 08:37:38;;;;;;;12.33;8.83;;;2.60;99.90;;;;;;4964475;28;20276;-65
2021/12/23 08:40:07;;;;;;;16.10;10.73;;;2.70;99.90;;;;;;4959382;28;20209;-67
2021/12/23 08:42:32;;;;;;;12.03;9.23;;;2.70;99.90;;;;;;4989795;28;20172;-68
2021/12/23 08:45:00;;;;;;;11.83;8.73;;;2.70;99.90;;;;;;4965647;28;20210;-66
2021/12/23 08:47:27;;;;;;;12.90;9.43;;;2.70;99.90;;;;;;4976590;28;20211;-67
2021/12/23 08:49:53;;;;;;;14.97;10.30;;;2.80;99.90;;;;;;4965518;28;20176;-67
2021/12/23 08:52:23;;;;;;;13.47;10.03;;;2.80;99.90;;;;;;4962147;28;20481;-66
2021/12/23 08:54:49;;;;;;;13.73;9.57;;;2.80;99.90;;;;;;4957945;28;20204;-66
2021/12/23 08:57:17;;;;;;;13.97;9.53;;;2.80;99.90;;;;;;4960447;28;20211;-66
2021/12/23 08:59:46;;;;;;;14.00;9.30;;;2.90;99.90;;;;;;4959783;28;20251;-64
2021/12/23 09:02:12;;;;;;;12.90;9.33;;;2.90;99.90;;;;;;4963783;28;20401;-66
2021/12/23 09:04:41;;;;;;;12.27;9.40;;;2.90;99.90;;;;;;4966665;28;20199;-66
2021/12/23 09:07:08;;;;;;;14.20;8.57;;;3.00;99.90;;;;;;4966398;28;20195;-66
2021/12/23 09:09:37;;;;;;;13.00;9.50;;;3.00;99.90;;;;;;4961603;28;20204;-65
2021/12/23 09:12:04;;;;;;;15.37;10.93;;;3.10;99.90;;;;;;4962956;28;20180;-64
2021/12/23 09:14:31;;;;;;;16.63;11.87;;;3.10;99.90;;;;;;4958856;28;20207;-64
2021/12/23 09:17:00;;;;;;;15.50;10.77;;;3.10;99.90;;;;;;4962984;28;20209;-67
2021/12/23 09:19:26;;;;;;;15.37;10.80;;;3.10;99.90;;;;;;4989797;28;20242;-67
2021/12/23 09:21:52;;;;;;;14.40;10.50;;;3.10;99.90;;;;;;4968478;28;20200;-66
2021/12/23 09:24:20;;;;;;;14.27;9.97;;;3.10;99.90;;;;;;4961669;28;20200;-64
2021/12/23 09:26:54;;;;;;;12.57;9.20;;;3.20;99.90;;;;;;4965407;28;20168;-67
2021/12/23 09:35:02;;;;;;;14.20;9.57;;;3.30;99.90;;;;;;4963542;28;20289;-66
2021/12/23 09:37:28;;;;;;;12.90;9.57;;;3.30;99.90;;;;;;4977152;28;20195;-67
2021/12/23 09:39:58;;;;;;;14.60;9.10;;;3.40;99.90;;;;;;4964115;28;20173;-66
2021/12/23 09:42:33;;;;;;;12.77;8.70;;;3.40;99.90;;;;;;5025846;28;20192;-71
2021/12/23 09:45:10;;;;;;;14.20;9.43;;;3.50;99.90;;;;;;4963354;28;20175;-69
2021/12/23 09:47:36;;;;;;;13.10;8.90;;;3.60;99.90;;;;;;5028883;28;20395;-67
2021/12/23 09:50:06;;;;;;;13.43;9.10;;;3.60;99.90;;;;;;4971051;28;20180;-66
2021/12/23 09:52:34;;;;;;;13.07;9.17;;;3.70;99.90;;;;;;4954247;28;20192;-67
2021/12/23 09:55:06;;;;;;;11.63;8.60;;;3.70;99.90;;;;;;4958617;28;20293;-67
2021/12/23 09:57:34;;;;;;;12.70;9.20;;;3.80;99.90;;;;;;4961840;28;20183;-67
2021/12/23 10:00:09;;;;;;;12.93;9.53;;;3.90;99.90;;;;;;4960685;28;20176;-67
2021/12/23 10:02:35;;;;;;;11.37;9.13;;;4.00;99.90;;;;;;4964805;28;20180;-66
2021/12/23 10:05:03;;;;;;;13.07;9.73;;;4.10;99.90;;;;;;4961380;28;20184;-66
2021/12/23 10:07:29;;;;;;;13.93;8.80;;;4.20;99.90;;;;;;4988132;28;20338;-66
2021/12/23 10:10:04;;;;;;;13.13;9.67;;;4.30;99.90;;;;;;5008252;28;20228;-64
2021/12/23 10:40:07;;;;;;;13.30;9.53;;;5.00;99.90;;;;;;4967559;28;20211;-67
2021/12/23 10:42:36;;;;;;;11.57;8.93;;;5.10;99.90;;;;;;4962959;28;20255;-66
2021/12/23 10:45:05;;;;;;;12.33;9.20;;;5.10;99.90;;;;;;4971315;28;20177;-66
2021/12/23 10:47:38;;;;;;;12.63;8.83;;;5.10;99.90;;;;;;4977375;28;20200;-66
2021/12/23 10:50:26;;;;;;;13.37;9.30;;;5.10;99.90;;;;;;4970497;28;20219;-67
2021/12/23 10:52:56;;;;;;;12.23;8.47;;;5.10;99.90;;;;;;4971131;28;20300;-66
2021/12/23 10:58:11;;;;;;;14.43;10.00;;;5.20;99.90;;;;;;4960727;28;20191;-64
2021/12/23 11:00:41;;;;;;;13.63;8.43;;;5.20;99.90;;;;;;4960740;28;20205;-65
2021/12/23 11:03:26;;;;;;;12.63;9.50;;;5.20;99.90;;;;;;4960925;28;20288;-66
